This is the latest recevied weather packets stored in our database for station/object OE7SBH-WX. If no packets are shown the sender has not sent any weather packets the latest 10 day(s).
| Time | Temp. | Humidity | Pressure | Rain* | Wind** | Luminosity | Snow |
|---|---|---|---|---|---|---|---|
| 1778198420 | 8.89° C | 91% | 1022.1 hPa | 0 mm | - | 0 W/m² | - |
| 1778196029 | 9.44° C | 93% | 1022.4 hPa | 0 mm | - | 0 W/m² | - |
| 1778194269 | 10° C | 91% | 1022.4 hPa | 0 mm | - | 0 W/m² | - |
| 1778187629 | 11.11° C | 89% | 1022.1 hPa | 0 mm | - | 0 W/m² | - |
| 1778187021 | 11.11° C | 89% | 1022.2 hPa | 0 mm | - | 0 W/m² | - |
| 1778182229 | 11.67° C | 87% | 1021.5 hPa | 0 mm | - | 0 W/m² | - |
| 1778180424 | 12.22° C | 83% | 1021 hPa | 0 mm | - | 0 W/m² | - |
| 1778178634 | 13.33° C | 76% | 1021 hPa | 0 mm | - | 2 W/m² | - |
| 1778174419 | 13.89° C | 70% | 1019.9 hPa | 0 mm | - | 20 W/m² | - |
| 1778173228 | 13.89° C | 71% | 1019.8 hPa | 0 mm | - | 29 W/m² | - |
| 1778167834 | 15.56° C | 65% | 1019.1 hPa | 0 mm | - | 246 W/m² | - |
| 1778166021 | 16.11° C | 64% | 1019.1 hPa | 0 mm | - | 283 W/m² | - |
| 1778165430 | 15.56° C | 65% | 1019.1 hPa | 0 mm | - | 495 W/m² | - |
| 1778163029 | 13.89° C | 71% | 1019.3 hPa | 0 mm | - | 296 W/m² | - |
| 1778160033 | 14.44° C | 67% | 1019.2 hPa | 0 mm | - | 177 W/m² | - |
| 1778159424 | 15.56° C | 66% | 1019.1 hPa | 0 mm | - | 348 W/m² | - |
| 1778158821 | 15.56° C | 63% | 1019 hPa | 0 mm | - | 287 W/m² | - |
| 1778143816 | 12.22° C | 74% | 1019.1 hPa | 0 mm | - | 125 W/m² | - |
| 1778143253 | 12.22° C | 74% | 1018.9 hPa | 0 mm | - | 107 W/m² | - |
| 1778140231 | 12.78° C | 73% | 1018.5 hPa | 0 mm | - | 232 W/m² | - |
| 1778137221 | 11.67° C | 75% | 1018.2 hPa | 0 mm | - | 123 W/m² | - |
| 1778135429 | 10.56° C | 79% | 1018.3 hPa | 0 mm | - | 86 W/m² | - |
| 1778132444 | 10° C | 82% | 1018 hPa | 0 mm | - | 64 W/m² | - |
| 1778130631 | 9.44° C | 83% | 1017.8 hPa | 0 mm | - | 28 W/m² | - |
| 1778130052 | 9.44° C | 83% | 1017.8 hPa | 0 mm | - | 20 W/m² | - |
* Rain latest hour (hover to see other rain measurements)
** Current wind speed in m/s (hover to see current wind gust speed)